sensor_id;sensor_type;location;lat;lon;timestamp;P1;durP1;ratioP1;P2;durP2;ratioP2
37275;SDS011;23166;51.150;21.620;2022-12-07T00:03:51;4.13;;;2.77;;
37275;SDS011;23166;51.150;21.620;2022-12-07T00:06:20;5.20;;;2.30;;
37275;SDS011;23166;51.150;21.620;2022-12-07T00:08:47;4.00;;;2.43;;
37275;SDS011;23166;51.150;21.620;2022-12-07T00:11:14;3.52;;;2.08;;
37275;SDS011;23166;51.150;21.620;2022-12-07T00:13:43;9.90;;;2.33;;
37275;SDS011;23166;51.150;21.620;2022-12-07T00:16:11;11.00;;;2.97;;
37275;SDS011;23166;51.150;21.620;2022-12-07T00:18:39;4.93;;;2.47;;
37275;SDS011;23166;51.150;21.620;2022-12-07T00:23:38;8.10;;;2.83;;
37275;SDS011;23166;51.150;21.620;2022-12-07T00:26:06;5.80;;;2.23;;
37275;SDS011;23166;51.150;21.620;2022-12-07T00:28:34;7.87;;;3.50;;
37275;SDS011;23166;51.150;21.620;2022-12-07T00:31:04;6.45;;;2.90;;
37275;SDS011;23166;51.150;21.620;2022-12-07T00:33:33;3.03;;;2.47;;
37275;SDS011;23166;51.150;21.620;2022-12-07T00:36:02;2.67;;;2.20;;
37275;SDS011;23166;51.150;21.620;2022-12-07T00:38:32;2.87;;;1.47;;
37275;SDS011;23166;51.150;21.620;2022-12-07T00:41:04;3.30;;;1.23;;
37275;SDS011;23166;51.150;21.620;2022-12-07T00:43:30;10.97;;;3.07;;
37275;SDS011;23166;51.150;21.620;2022-12-07T00:45:56;4.12;;;2.60;;
37275;SDS011;23166;51.150;21.620;2022-12-07T00:48:23;4.80;;;2.10;;
37275;SDS011;23166;51.150;21.620;2022-12-07T00:50:50;1.90;;;1.00;;
37275;SDS011;23166;51.150;21.620;2022-12-07T00:53:17;1.30;;;1.20;;
37275;SDS011;23166;51.150;21.620;2022-12-07T00:55:44;2.75;;;1.42;;
37275;SDS011;23166;51.150;21.620;2022-12-07T01:00:37;2.12;;;1.02;;
37275;SDS011;23166;51.150;21.620;2022-12-07T01:03:05;1.47;;;1.37;;
37275;SDS011;23166;51.150;21.620;2022-12-07T01:05:33;1.20;;;1.10;;
37275;SDS011;23166;51.150;21.620;2022-12-07T01:07:59;2.17;;;1.57;;
37275;SDS011;23166;51.150;21.620;2022-12-07T01:10:26;1.05;;;0.98;;
37275;SDS011;23166;51.150;21.620;2022-12-07T01:12:54;2.30;;;1.73;;
37275;SDS011;23166;51.150;21.620;2022-12-07T01:15:20;1.77;;;1.32;;
37275;SDS011;23166;51.150;21.620;2022-12-07T01:17:47;2.58;;;2.37;;
37275;SDS011;23166;51.150;21.620;2022-12-07T01:20:13;3.17;;;1.82;;
37275;SDS011;23166;51.150;21.620;2022-12-07T01:22:42;0.93;;;0.87;;
37275;SDS011;23166;51.150;21.620;2022-12-07T01:25:10;4.57;;;1.03;;
37275;SDS011;23166;51.150;21.620;2022-12-07T01:27:37;1.63;;;0.83;;
37275;SDS011;23166;51.150;21.620;2022-12-07T01:30:06;3.67;;;1.02;;
37275;SDS011;23166;51.150;21.620;2022-12-07T01:32:33;2.07;;;1.70;;
37275;SDS011;23166;51.150;21.620;2022-12-07T01:34:59;1.02;;;0.90;;
37275;SDS011;23166;51.150;21.620;2022-12-07T01:37:26;1.67;;;1.05;;
37275;SDS011;23166;51.150;21.620;2022-12-07T01:39:52;1.12;;;1.02;;
37275;SDS011;23166;51.150;21.620;2022-12-07T01:42:19;4.75;;;2.20;;
37275;SDS011;23166;51.150;21.620;2022-12-07T01:47:46;2.53;;;1.23;;
37275;SDS011;23166;51.150;21.620;2022-12-07T01:50:15;1.67;;;1.57;;
37275;SDS011;23166;51.150;21.620;2022-12-07T01:52:42;0.93;;;0.93;;
37275;SDS011;23166;51.150;21.620;2022-12-07T01:55:12;0.83;;;0.73;;
37275;SDS011;23166;51.150;21.620;2022-12-07T01:57:41;10.43;;;1.30;;
37275;SDS011;23166;51.150;21.620;2022-12-07T02:00:10;3.17;;;0.90;;
37275;SDS011;23166;51.150;21.620;2022-12-07T02:02:44;2.07;;;1.60;;
37275;SDS011;23166;51.150;21.620;2022-12-07T02:05:13;1.87;;;0.77;;
37275;SDS011;23166;51.150;21.620;2022-12-07T02:07:40;3.80;;;1.33;;
37275;SDS011;23166;51.150;21.620;2022-12-07T02:12:43;2.07;;;1.40;;
37275;SDS011;23166;51.150;21.620;2022-12-07T02:15:12;5.27;;;1.80;;
37275;SDS011;23166;51.150;21.620;2022-12-07T02:20:17;0.77;;;0.73;;
37275;SDS011;23166;51.150;21.620;2022-12-07T02:32:01;7.43;;;1.77;;
37275;SDS011;23166;51.150;21.620;2022-12-07T02:36:51;1.73;;;1.63;;
37275;SDS011;23166;51.150;21.620;2022-12-07T02:39:19;4.53;;;1.83;;
37275;SDS011;23166;51.150;21.620;2022-12-07T02:41:49;1.07;;;1.00;;
37275;SDS011;23166;51.150;21.620;2022-12-07T02:44:18;1.53;;;1.30;;
37275;SDS011;23166;51.150;21.620;2022-12-07T02:46:53;0.97;;;0.97;;
37275;SDS011;23166;51.150;21.620;2022-12-07T02:49:27;0.43;;;0.43;;
37275;SDS011;23166;51.150;21.620;2022-12-07T02:51:54;1.83;;;1.13;;
37275;SDS011;23166;51.150;21.620;2022-12-07T02:54:21;2.00;;;1.82;;
37275;SDS011;23166;51.150;21.620;2022-12-07T02:56:50;2.20;;;1.43;;
37275;SDS011;23166;51.150;21.620;2022-12-07T03:05:00;1.37;;;0.93;;
37275;SDS011;23166;51.150;21.620;2022-12-07T03:10:54;0.63;;;0.63;;
37275;SDS011;23166;51.150;21.620;2022-12-07T03:13:22;1.97;;;1.17;;
37275;SDS011;23166;51.150;21.620;2022-12-07T03:16:11;6.70;;;1.20;;
37275;SDS011;23166;51.150;21.620;2022-12-07T03:18:55;1.20;;;1.17;;
37275;SDS011;23166;51.150;21.620;2022-12-07T03:21:43;1.10;;;1.00;;
37275;SDS011;23166;51.150;21.620;2022-12-07T03:24:00;1.27;;;0.87;;
37275;SDS011;23166;51.150;21.620;2022-12-07T03:26:34;1.60;;;1.50;;
37275;SDS011;23166;51.150;21.620;2022-12-07T03:29:00;1.20;;;0.80;;
37275;SDS011;23166;51.150;21.620;2022-12-07T03:31:30;1.67;;;1.50;;
37275;SDS011;23166;51.150;21.620;2022-12-07T03:34:01;2.37;;;2.17;;
37275;SDS011;23166;51.150;21.620;2022-12-07T03:36:34;2.37;;;1.20;;
37275;SDS011;23166;51.150;21.620;2022-12-07T03:41:58;1.43;;;1.33;;
37275;SDS011;23166;51.150;21.620;2022-12-07T03:44:26;2.40;;;1.23;;
37275;SDS011;23166;51.150;21.620;2022-12-07T03:47:07;1.22;;;1.15;;
37275;SDS011;23166;51.150;21.620;2022-12-07T03:52:11;1.10;;;1.03;;
37275;SDS011;23166;51.150;21.620;2022-12-07T03:57:34;7.70;;;0.90;;
37275;SDS011;23166;51.150;21.620;2022-12-07T04:00:05;0.67;;;0.67;;
37275;SDS011;23166;51.150;21.620;2022-12-07T04:02:31;1.50;;;1.07;;
37275;SDS011;23166;51.150;21.620;2022-12-07T04:04:58;1.10;;;1.00;;
37275;SDS011;23166;51.150;21.620;2022-12-07T04:07:25;1.57;;;0.70;;
37275;SDS011;23166;51.150;21.620;2022-12-07T04:09:51;1.05;;;0.93;;
37275;SDS011;23166;51.150;21.620;2022-12-07T04:12:20;1.27;;;1.27;;
37275;SDS011;23166;51.150;21.620;2022-12-07T04:14:47;0.97;;;0.97;;
37275;SDS011;23166;51.150;21.620;2022-12-07T04:17:14;1.80;;;1.52;;
37275;SDS011;23166;51.150;21.620;2022-12-07T04:19:40;2.20;;;1.77;;
37275;SDS011;23166;51.150;21.620;2022-12-07T04:22:06;1.20;;;1.10;;
37275;SDS011;23166;51.150;21.620;2022-12-07T04:24:33;6.87;;;1.95;;
37275;SDS011;23166;51.150;21.620;2022-12-07T04:29:26;5.42;;;1.07;;
37275;SDS011;23166;51.150;21.620;2022-12-07T04:31:53;1.37;;;1.27;;
37275;SDS011;23166;51.150;21.620;2022-12-07T04:34:19;4.22;;;2.05;;
37275;SDS011;23166;51.150;21.620;2022-12-07T04:36:46;4.58;;;1.62;;
37275;SDS011;23166;51.150;21.620;2022-12-07T04:39:20;2.55;;;1.70;;
37275;SDS011;23166;51.150;21.620;2022-12-07T04:41:54;5.10;;;1.27;;
37275;SDS011;23166;51.150;21.620;2022-12-07T04:44:21;2.87;;;1.22;;
37275;SDS011;23166;51.150;21.620;2022-12-07T04:46:49;7.10;;;0.73;;
37275;SDS011;23166;51.150;21.620;2022-12-07T04:49:16;2.25;;;1.37;;
37275;SDS011;23166;51.150;21.620;2022-12-07T04:51:44;0.50;;;0.50;;
37275;SDS011;23166;51.150;21.620;2022-12-07T04:54:11;1.37;;;0.80;;
37275;SDS011;23166;51.150;21.620;2022-12-07T04:56:39;1.43;;;1.23;;
37275;SDS011;23166;51.150;21.620;2022-12-07T04:59:05;2.17;;;1.82;;
37275;SDS011;23166;51.150;21.620;2022-12-07T05:01:32;3.05;;;1.27;;
37275;SDS011;23166;51.150;21.620;2022-12-07T05:03:59;1.98;;;0.78;;
37275;SDS011;23166;51.150;21.620;2022-12-07T05:06:26;1.85;;;1.12;;
37275;SDS011;23166;51.150;21.620;2022-12-07T05:08:52;1.98;;;0.72;;
37275;SDS011;23166;51.150;21.620;2022-12-07T05:11:19;3.00;;;2.17;;
37275;SDS011;23166;51.150;21.620;2022-12-07T05:14:15;1.97;;;1.80;;
37275;SDS011;23166;51.150;21.620;2022-12-07T05:16:39;1.97;;;1.00;;
37275;SDS011;23166;51.150;21.620;2022-12-07T05:19:08;1.70;;;1.53;;
37275;SDS011;23166;51.150;21.620;2022-12-07T05:21:35;1.30;;;1.17;;
37275;SDS011;23166;51.150;21.620;2022-12-07T05:24:02;1.90;;;1.27;;
37275;SDS011;23166;51.150;21.620;2022-12-07T05:26:30;2.40;;;1.50;;
37275;SDS011;23166;51.150;21.620;2022-12-07T05:28:57;1.50;;;1.30;;
37275;SDS011;23166;51.150;21.620;2022-12-07T05:33:50;1.60;;;1.47;;
37275;SDS011;23166;51.150;21.620;2022-12-07T05:36:17;1.02;;;0.65;;
37275;SDS011;23166;51.150;21.620;2022-12-07T05:38:43;4.03;;;1.98;;
37275;SDS011;23166;51.150;21.620;2022-12-07T05:41:12;1.95;;;1.20;;
37275;SDS011;23166;51.150;21.620;2022-12-07T05:43:42;5.83;;;2.37;;
37275;SDS011;23166;51.150;21.620;2022-12-07T05:46:08;2.12;;;1.98;;
37275;SDS011;23166;51.150;21.620;2022-12-07T05:48:34;3.15;;;1.55;;
37275;SDS011;23166;51.150;21.620;2022-12-07T05:51:02;3.27;;;1.53;;
37275;SDS011;23166;51.150;21.620;2022-12-07T05:53:28;3.27;;;1.35;;
37275;SDS011;23166;51.150;21.620;2022-12-07T05:55:55;3.08;;;1.25;;
37275;SDS011;23166;51.150;21.620;2022-12-07T05:58:22;3.08;;;1.30;;
37275;SDS011;23166;51.150;21.620;2022-12-07T06:01:06;2.63;;;1.87;;
37275;SDS011;23166;51.150;21.620;2022-12-07T06:03:33;5.50;;;1.37;;
37275;SDS011;23166;51.150;21.620;2022-12-07T06:05:59;1.42;;;1.32;;
37275;SDS011;23166;51.150;21.620;2022-12-07T06:08:26;1.10;;;1.10;;
37275;SDS011;23166;51.150;21.620;2022-12-07T06:10:52;4.45;;;2.33;;
37275;SDS011;23166;51.150;21.620;2022-12-07T06:13:20;2.63;;;1.03;;
37275;SDS011;23166;51.150;21.620;2022-12-07T06:15:47;4.03;;;2.22;;
37275;SDS011;23166;51.150;21.620;2022-12-07T06:18:13;5.40;;;3.37;;
37275;SDS011;23166;51.150;21.620;2022-12-07T06:20:39;2.30;;;2.05;;
37275;SDS011;23166;51.150;21.620;2022-12-07T06:23:06;4.00;;;2.45;;
37275;SDS011;23166;51.150;21.620;2022-12-07T06:25:32;3.02;;;2.42;;
37275;SDS011;23166;51.150;21.620;2022-12-07T06:27:58;1.67;;;1.57;;
37275;SDS011;23166;51.150;21.620;2022-12-07T06:30:25;2.60;;;2.40;;
37275;SDS011;23166;51.150;21.620;2022-12-07T06:32:52;3.50;;;2.17;;
37275;SDS011;23166;51.150;21.620;2022-12-07T06:35:18;6.65;;;2.85;;
37275;SDS011;23166;51.150;21.620;2022-12-07T06:37:45;2.08;;;1.92;;
37275;SDS011;23166;51.150;21.620;2022-12-07T06:40:11;4.28;;;3.02;;
37275;SDS011;23166;51.150;21.620;2022-12-07T06:42:38;3.62;;;2.08;;
37275;SDS011;23166;51.150;21.620;2022-12-07T06:45:05;1.57;;;1.47;;
37275;SDS011;23166;51.150;21.620;2022-12-07T06:47:32;6.17;;;2.70;;
37275;SDS011;23166;51.150;21.620;2022-12-07T06:49:58;4.83;;;1.62;;
37275;SDS011;23166;51.150;21.620;2022-12-07T06:52:24;1.65;;;1.55;;
37275;SDS011;23166;51.150;21.620;2022-12-07T06:54:51;2.58;;;1.15;;
37275;SDS011;23166;51.150;21.620;2022-12-07T06:57:17;3.12;;;1.75;;
37275;SDS011;23166;51.150;21.620;2022-12-07T06:59:45;3.50;;;2.13;;
37275;SDS011;23166;51.150;21.620;2022-12-07T07:02:12;2.05;;;1.27;;
37275;SDS011;23166;51.150;21.620;2022-12-07T07:04:38;1.05;;;1.02;;
37275;SDS011;23166;51.150;21.620;2022-12-07T07:07:05;3.52;;;2.42;;
37275;SDS011;23166;51.150;21.620;2022-12-07T07:09:31;2.08;;;1.15;;
37275;SDS011;23166;51.150;21.620;2022-12-07T07:11:57;1.35;;;1.02;;
37275;SDS011;23166;51.150;21.620;2022-12-07T07:14:24;0.75;;;0.75;;
37275;SDS011;23166;51.150;21.620;2022-12-07T07:16:50;1.30;;;1.20;;
37275;SDS011;23166;51.150;21.620;2022-12-07T07:19:16;1.90;;;1.32;;
37275;SDS011;23166;51.150;21.620;2022-12-07T07:21:43;2.72;;;2.52;;
37275;SDS011;23166;51.150;21.620;2022-12-07T07:24:09;2.12;;;1.47;;
37275;SDS011;23166;51.150;21.620;2022-12-07T07:26:35;3.80;;;2.37;;
37275;SDS011;23166;51.150;21.620;2022-12-07T07:29:02;2.62;;;0.93;;
37275;SDS011;23166;51.150;21.620;2022-12-07T07:31:28;1.57;;;1.47;;
37275;SDS011;23166;51.150;21.620;2022-12-07T07:33:55;1.17;;;1.15;;
37275;SDS011;23166;51.150;21.620;2022-12-07T07:36:21;0.90;;;0.90;;
37275;SDS011;23166;51.150;21.620;2022-12-07T07:38:47;1.32;;;1.22;;
37275;SDS011;23166;51.150;21.620;2022-12-07T07:41:14;2.15;;;1.67;;
37275;SDS011;23166;51.150;21.620;2022-12-07T07:43:40;5.58;;;1.67;;
37275;SDS011;23166;51.150;21.620;2022-12-07T07:46:07;4.75;;;2.77;;
37275;SDS011;23166;51.150;21.620;2022-12-07T07:48:33;7.47;;;2.08;;
37275;SDS011;23166;51.150;21.620;2022-12-07T07:50:59;3.50;;;1.12;;
37275;SDS011;23166;51.150;21.620;2022-12-07T07:53:26;10.55;;;2.05;;
37275;SDS011;23166;51.150;21.620;2022-12-07T07:55:53;1.70;;;1.60;;
37275;SDS011;23166;51.150;21.620;2022-12-07T07:58:20;1.93;;;1.10;;
37275;SDS011;23166;51.150;21.620;2022-12-07T08:00:47;1.60;;;1.40;;
37275;SDS011;23166;51.150;21.620;2022-12-07T08:03:14;5.15;;;1.10;;
37275;SDS011;23166;51.150;21.620;2022-12-07T08:05:40;4.67;;;2.17;;
37275;SDS011;23166;51.150;21.620;2022-12-07T08:08:07;6.80;;;2.02;;
37275;SDS011;23166;51.150;21.620;2022-12-07T08:10:33;4.83;;;1.90;;
37275;SDS011;23166;51.150;21.620;2022-12-07T08:13:01;2.70;;;2.43;;
37275;SDS011;23166;51.150;21.620;2022-12-07T08:15:40;7.03;;;2.03;;
37275;SDS011;23166;51.150;21.620;2022-12-07T08:18:08;3.47;;;2.47;;
37275;SDS011;23166;51.150;21.620;2022-12-07T08:20:34;2.77;;;1.92;;
37275;SDS011;23166;51.150;21.620;2022-12-07T08:23:02;2.80;;;2.37;;
37275;SDS011;23166;51.150;21.620;2022-12-07T08:25:28;1.32;;;1.22;;
37275;SDS011;23166;51.150;21.620;2022-12-07T08:27:55;4.43;;;2.27;;
37275;SDS011;23166;51.150;21.620;2022-12-07T08:30:22;3.98;;;2.25;;
37275;SDS011;23166;51.150;21.620;2022-12-07T08:32:48;2.12;;;1.82;;
37275;SDS011;23166;51.150;21.620;2022-12-07T08:35:15;1.52;;;1.42;;
37275;SDS011;23166;51.150;21.620;2022-12-07T08:37:42;3.40;;;1.75;;
37275;SDS011;23166;51.150;21.620;2022-12-07T08:40:09;3.17;;;2.05;;
37275;SDS011;23166;51.150;21.620;2022-12-07T08:42:37;3.23;;;2.23;;
37275;SDS011;23166;51.150;21.620;2022-12-07T08:47:49;1.97;;;1.83;;
37275;SDS011;23166;51.150;21.620;2022-12-07T08:50:20;4.10;;;1.87;;
37275;SDS011;23166;51.150;21.620;2022-12-07T08:52:48;2.70;;;2.20;;
37275;SDS011;23166;51.150;21.620;2022-12-07T08:55:17;4.70;;;2.40;;
37275;SDS011;23166;51.150;21.620;2022-12-07T09:00:11;2.00;;;1.87;;
37275;SDS011;23166;51.150;21.620;2022-12-07T09:02:38;2.33;;;1.80;;
37275;SDS011;23166;51.150;21.620;2022-12-07T09:05:04;2.95;;;2.60;;
37275;SDS011;23166;51.150;21.620;2022-12-07T09:09:58;5.83;;;2.53;;
37275;SDS011;23166;51.150;21.620;2022-12-07T09:12:25;3.45;;;2.12;;
37275;SDS011;23166;51.150;21.620;2022-12-07T09:14:51;7.20;;;3.47;;
37275;SDS011;23166;51.150;21.620;2022-12-07T09:17:18;3.35;;;2.60;;
37275;SDS011;23166;51.150;21.620;2022-12-07T09:19:44;8.73;;;3.20;;
37275;SDS011;23166;51.150;21.620;2022-12-07T09:22:10;4.10;;;2.80;;
37275;SDS011;23166;51.150;21.620;2022-12-07T09:24:37;9.28;;;3.05;;
37275;SDS011;23166;51.150;21.620;2022-12-07T09:27:03;5.28;;;2.98;;
37275;SDS011;23166;51.150;21.620;2022-12-07T09:29:30;4.42;;;3.92;;
37275;SDS011;23166;51.150;21.620;2022-12-07T09:31:56;1.87;;;1.77;;
37275;SDS011;23166;51.150;21.620;2022-12-07T09:34:22;2.30;;;2.10;;
37275;SDS011;23166;51.150;21.620;2022-12-07T09:36:49;3.30;;;3.00;;
37275;SDS011;23166;51.150;21.620;2022-12-07T09:39:15;5.83;;;3.85;;
37275;SDS011;23166;51.150;21.620;2022-12-07T09:41:43;5.78;;;3.08;;
37275;SDS011;23166;51.150;21.620;2022-12-07T09:44:11;3.00;;;2.37;;
37275;SDS011;23166;51.150;21.620;2022-12-07T09:46:40;22.43;;;8.50;;
37275;SDS011;23166;51.150;21.620;2022-12-07T09:49:11;6.23;;;4.43;;
37275;SDS011;23166;51.150;21.620;2022-12-07T09:51:41;15.53;;;7.67;;
37275;SDS011;23166;51.150;21.620;2022-12-07T09:54:08;15.03;;;4.17;;
37275;SDS011;23166;51.150;21.620;2022-12-07T09:56:40;3.23;;;1.93;;
37275;SDS011;23166;51.150;21.620;2022-12-07T09:59:16;19.73;;;6.30;;
37275;SDS011;23166;51.150;21.620;2022-12-07T10:01:40;32.73;;;8.37;;
37275;SDS011;23166;51.150;21.620;2022-12-07T10:06:46;7.93;;;5.53;;
37275;SDS011;23166;51.150;21.620;2022-12-07T10:09:15;6.75;;;2.72;;
37275;SDS011;23166;51.150;21.620;2022-12-07T10:14:36;4.80;;;1.90;;
37275;SDS011;23166;51.150;21.620;2022-12-07T10:20:15;6.55;;;2.52;;
37275;SDS011;23166;51.150;21.620;2022-12-07T10:23:02;4.40;;;2.67;;
37275;SDS011;23166;51.150;21.620;2022-12-07T10:25:35;2.30;;;2.10;;
37275;SDS011;23166;51.150;21.620;2022-12-07T10:30:49;5.83;;;2.63;;
37275;SDS011;23166;51.150;21.620;2022-12-07T10:33:38;1.80;;;1.70;;
37275;SDS011;23166;51.150;21.620;2022-12-07T10:36:21;3.53;;;2.00;;
37275;SDS011;23166;51.150;21.620;2022-12-07T10:38:59;6.37;;;2.13;;
37275;SDS011;23166;51.150;21.620;2022-12-07T10:44:31;3.70;;;3.40;;
37275;SDS011;23166;51.150;21.620;2022-12-07T10:52:55;6.33;;;4.73;;
37275;SDS011;23166;51.150;21.620;2022-12-07T10:55:40;5.40;;;3.47;;
37275;SDS011;23166;51.150;21.620;2022-12-07T11:11:33;1.37;;;1.13;;
37275;SDS011;23166;51.150;21.620;2022-12-07T11:14:10;2.93;;;1.63;;
37275;SDS011;23166;51.150;21.620;2022-12-07T11:24:57;1.93;;;1.80;;
37275;SDS011;23166;51.150;21.620;2022-12-07T11:30:13;15.67;;;6.07;;
37275;SDS011;23166;51.150;21.620;2022-12-07T11:32:58;4.23;;;3.00;;
37275;SDS011;23166;51.150;21.620;2022-12-07T11:41:23;1.57;;;0.83;;
37275;SDS011;23166;51.150;21.620;2022-12-07T11:43:54;4.67;;;1.77;;
37275;SDS011;23166;51.150;21.620;2022-12-07T11:46:24;4.47;;;2.47;;
37275;SDS011;23166;51.150;21.620;2022-12-07T11:51:52;6.30;;;2.27;;
37275;SDS011;23166;51.150;21.620;2022-12-07T11:54:23;9.60;;;2.87;;
37275;SDS011;23166;51.150;21.620;2022-12-07T11:56:51;4.37;;;2.57;;
37275;SDS011;23166;51.150;21.620;2022-12-07T11:59:29;2.03;;;1.87;;
37275;SDS011;23166;51.150;21.620;2022-12-07T12:02:02;2.10;;;1.67;;
37275;SDS011;23166;51.150;21.620;2022-12-07T12:04:33;3.03;;;2.57;;
37275;SDS011;23166;51.150;21.620;2022-12-07T12:07:15;1.43;;;1.33;;
37275;SDS011;23166;51.150;21.620;2022-12-07T12:09:51;5.70;;;2.03;;
37275;SDS011;23166;51.150;21.620;2022-12-07T12:20:43;9.37;;;3.47;;
37275;SDS011;23166;51.150;21.620;2022-12-07T12:23:19;6.33;;;2.50;;
37275;SDS011;23166;51.150;21.620;2022-12-07T12:26:21;5.47;;;3.67;;
37275;SDS011;23166;51.150;21.620;2022-12-07T12:33:44;13.97;;;4.83;;
37275;SDS011;23166;51.150;21.620;2022-12-07T12:46:57;6.83;;;2.47;;
37275;SDS011;23166;51.150;21.620;2022-12-07T12:52:01;3.33;;;0.97;;
37275;SDS011;23166;51.150;21.620;2022-12-07T12:57:28;0.65;;;0.65;;
37275;SDS011;23166;51.150;21.620;2022-12-07T12:59:57;2.53;;;2.03;;
37275;SDS011;23166;51.150;21.620;2022-12-07T13:10:34;2.03;;;1.53;;
37275;SDS011;23166;51.150;21.620;2022-12-07T13:15:48;2.50;;;1.70;;
37275;SDS011;23166;51.150;21.620;2022-12-07T13:21:00;2.37;;;1.57;;
37275;SDS011;23166;51.150;21.620;2022-12-07T13:29:14;2.90;;;1.60;;
37275;SDS011;23166;51.150;21.620;2022-12-07T13:39:47;5.77;;;2.10;;
37275;SDS011;23166;51.150;21.620;2022-12-07T13:42:25;3.03;;;1.77;;
37275;SDS011;23166;51.150;21.620;2022-12-07T13:44:57;2.97;;;1.60;;
37275;SDS011;23166;51.150;21.620;2022-12-07T13:50:28;4.87;;;2.27;;
37275;SDS011;23166;51.150;21.620;2022-12-07T13:52:57;2.70;;;1.70;;
37275;SDS011;23166;51.150;21.620;2022-12-07T13:55:25;5.03;;;2.10;;
37275;SDS011;23166;51.150;21.620;2022-12-07T13:57:52;1.17;;;0.80;;
37275;SDS011;23166;51.150;21.620;2022-12-07T14:00:26;2.67;;;2.03;;
37275;SDS011;23166;51.150;21.620;2022-12-07T14:02:56;0.90;;;0.73;;
37275;SDS011;23166;51.150;21.620;2022-12-07T14:05:27;3.00;;;1.63;;
37275;SDS011;23166;51.150;21.620;2022-12-07T14:07:58;1.73;;;1.57;;
37275;SDS011;23166;51.150;21.620;2022-12-07T14:10:36;3.00;;;2.73;;
37275;SDS011;23166;51.150;21.620;2022-12-07T14:15:52;3.20;;;1.80;;
37275;SDS011;23166;51.150;21.620;2022-12-07T14:21:54;7.12;;;2.62;;
37275;SDS011;23166;51.150;21.620;2022-12-07T14:23:38;2.87;;;2.10;;
37275;SDS011;23166;51.150;21.620;2022-12-07T14:28:50;4.17;;;2.10;;
37275;SDS011;23166;51.150;21.620;2022-12-07T14:31:18;4.60;;;3.02;;
37275;SDS011;23166;51.150;21.620;2022-12-07T14:33:46;3.33;;;2.57;;
37275;SDS011;23166;51.150;21.620;2022-12-07T14:36:13;9.05;;;3.40;;
37275;SDS011;23166;51.150;21.620;2022-12-07T14:38:40;5.03;;;3.13;;
37275;SDS011;23166;51.150;21.620;2022-12-07T14:41:11;9.18;;;4.97;;
37275;SDS011;23166;51.150;21.620;2022-12-07T14:43:59;25.67;;;12.43;;
37275;SDS011;23166;51.150;21.620;2022-12-07T14:46:26;6.97;;;5.20;;
37275;SDS011;23166;51.150;21.620;2022-12-07T14:48:52;10.82;;;6.30;;
37275;SDS011;23166;51.150;21.620;2022-12-07T14:51:18;183.97;;;74.55;;
37275;SDS011;23166;51.150;21.620;2022-12-07T14:53:48;265.43;;;114.67;;
37275;SDS011;23166;51.150;21.620;2022-12-07T14:56:16;93.17;;;39.50;;
37275;SDS011;23166;51.150;21.620;2022-12-07T14:58:43;286.48;;;103.38;;
37275;SDS011;23166;51.150;21.620;2022-12-07T15:01:09;167.87;;;76.87;;
37275;SDS011;23166;51.150;21.620;2022-12-07T15:03:35;115.47;;;47.70;;
37275;SDS011;23166;51.150;21.620;2022-12-07T15:06:04;21.03;;;11.40;;
37275;SDS011;23166;51.150;21.620;2022-12-07T15:08:31;13.67;;;8.60;;
37275;SDS011;23166;51.150;21.620;2022-12-07T15:10:58;12.90;;;5.50;;
37275;SDS011;23166;51.150;21.620;2022-12-07T15:13:24;12.43;;;5.90;;
37275;SDS011;23166;51.150;21.620;2022-12-07T15:16:10;37.73;;;14.40;;
37275;SDS011;23166;51.150;21.620;2022-12-07T15:18:38;30.97;;;14.27;;
37275;SDS011;23166;51.150;21.620;2022-12-07T15:21:05;23.60;;;8.00;;
37275;SDS011;23166;51.150;21.620;2022-12-07T15:23:31;26.52;;;8.95;;
37275;SDS011;23166;51.150;21.620;2022-12-07T15:25:58;16.67;;;6.00;;
37275;SDS011;23166;51.150;21.620;2022-12-07T15:28:24;21.30;;;8.43;;
37275;SDS011;23166;51.150;21.620;2022-12-07T15:30:50;15.70;;;6.17;;
37275;SDS011;23166;51.150;21.620;2022-12-07T15:33:17;15.23;;;6.97;;
37275;SDS011;23166;51.150;21.620;2022-12-07T15:35:44;16.85;;;7.80;;
37275;SDS011;23166;51.150;21.620;2022-12-07T15:38:11;8.30;;;4.17;;
37275;SDS011;23166;51.150;21.620;2022-12-07T15:40:37;16.95;;;6.10;;
37275;SDS011;23166;51.150;21.620;2022-12-07T15:43:04;8.65;;;4.22;;
37275;SDS011;23166;51.150;21.620;2022-12-07T15:45:30;10.45;;;5.05;;
37275;SDS011;23166;51.150;21.620;2022-12-07T15:47:57;15.80;;;9.18;;
37275;SDS011;23166;51.150;21.620;2022-12-07T15:50:24;17.15;;;9.15;;
37275;SDS011;23166;51.150;21.620;2022-12-07T15:52:50;9.88;;;5.10;;
37275;SDS011;23166;51.150;21.620;2022-12-07T15:55:16;24.10;;;4.80;;
37275;SDS011;23166;51.150;21.620;2022-12-07T15:57:43;14.10;;;5.65;;
37275;SDS011;23166;51.150;21.620;2022-12-07T16:00:10;9.25;;;3.90;;
37275;SDS011;23166;51.150;21.620;2022-12-07T16:05:03;18.57;;;10.20;;
37275;SDS011;23166;51.150;21.620;2022-12-07T16:07:30;19.17;;;9.50;;
37275;SDS011;23166;51.150;21.620;2022-12-07T16:09:56;26.00;;;8.45;;
37275;SDS011;23166;51.150;21.620;2022-12-07T16:12:23;30.02;;;4.92;;
37275;SDS011;23166;51.150;21.620;2022-12-07T16:14:50;11.30;;;4.73;;
37275;SDS011;23166;51.150;21.620;2022-12-07T16:17:17;14.65;;;5.22;;
37275;SDS011;23166;51.150;21.620;2022-12-07T16:19:43;14.15;;;7.62;;
37275;SDS011;23166;51.150;21.620;2022-12-07T16:22:09;6.15;;;3.72;;
37275;SDS011;23166;51.150;21.620;2022-12-07T16:24:36;14.47;;;4.53;;
37275;SDS011;23166;51.150;21.620;2022-12-07T16:27:02;14.80;;;5.92;;
37275;SDS011;23166;51.150;21.620;2022-12-07T16:29:29;16.80;;;5.30;;
37275;SDS011;23166;51.150;21.620;2022-12-07T16:31:55;10.50;;;7.00;;
37275;SDS011;23166;51.150;21.620;2022-12-07T16:34:21;7.95;;;4.33;;
37275;SDS011;23166;51.150;21.620;2022-12-07T16:36:48;10.70;;;3.50;;
37275;SDS011;23166;51.150;21.620;2022-12-07T16:39:14;11.05;;;6.40;;
37275;SDS011;23166;51.150;21.620;2022-12-07T16:41:41;6.10;;;3.75;;
37275;SDS011;23166;51.150;21.620;2022-12-07T16:44:09;11.48;;;4.62;;
37275;SDS011;23166;51.150;21.620;2022-12-07T16:46:36;21.07;;;6.53;;
37275;SDS011;23166;51.150;21.620;2022-12-07T16:49:03;10.05;;;5.35;;
37275;SDS011;23166;51.150;21.620;2022-12-07T16:51:30;14.33;;;5.93;;
37275;SDS011;23166;51.150;21.620;2022-12-07T16:53:57;15.23;;;5.33;;
37275;SDS011;23166;51.150;21.620;2022-12-07T16:56:24;10.50;;;5.93;;
37275;SDS011;23166;51.150;21.620;2022-12-07T16:58:52;6.37;;;3.80;;
37275;SDS011;23166;51.150;21.620;2022-12-07T17:01:19;4.90;;;3.05;;
37275;SDS011;23166;51.150;21.620;2022-12-07T17:03:48;4.77;;;3.67;;
37275;SDS011;23166;51.150;21.620;2022-12-07T17:06:19;9.20;;;4.28;;
37275;SDS011;23166;51.150;21.620;2022-12-07T17:08:48;17.43;;;5.63;;
37275;SDS011;23166;51.150;21.620;2022-12-07T17:11:17;31.40;;;11.37;;
37275;SDS011;23166;51.150;21.620;2022-12-07T17:13:48;51.07;;;18.13;;
37275;SDS011;23166;51.150;21.620;2022-12-07T17:16:34;33.43;;;11.67;;
37275;SDS011;23166;51.150;21.620;2022-12-07T17:19:04;14.47;;;9.48;;
37275;SDS011;23166;51.150;21.620;2022-12-07T17:33:47;14.03;;;7.07;;
37275;SDS011;23166;51.150;21.620;2022-12-07T17:38:47;25.87;;;12.03;;
37275;SDS011;23166;51.150;21.620;2022-12-07T17:41:20;12.83;;;6.47;;
37275;SDS011;23166;51.150;21.620;2022-12-07T17:44:07;8.37;;;2.40;;
37275;SDS011;23166;51.150;21.620;2022-12-07T17:46:36;5.73;;;4.43;;
37275;SDS011;23166;51.150;21.620;2022-12-07T17:49:03;5.40;;;3.97;;
37275;SDS011;23166;51.150;21.620;2022-12-07T17:51:31;5.50;;;3.73;;
37275;SDS011;23166;51.150;21.620;2022-12-07T17:54:17;9.63;;;5.47;;
37275;SDS011;23166;51.150;21.620;2022-12-07T17:56:44;16.12;;;5.10;;